createdAt,value
2023-04-15T00:01:37.253Z,97486.72
2023-04-15T00:04:04.749Z,97473.56
2023-04-15T00:06:31.781Z,97471.78
2023-04-15T00:08:58.615Z,97467.59
2023-04-15T00:11:25.947Z,97470.78
2023-04-15T00:13:52.719Z,97470.41
2023-04-15T00:16:19.438Z,97468.69
2023-04-15T00:18:46.323Z,97465.53
2023-04-15T00:21:13.209Z,97463.97
2023-04-15T00:23:39.872Z,97461.50
2023-04-15T00:26:07.376Z,97461.59
2023-04-15T00:28:34.148Z,97464.41
2023-04-15T00:31:00.885Z,97461.28
2023-04-15T00:33:27.594Z,97458.09
2023-04-15T00:35:54.330Z,97449.22
2023-04-15T00:38:21.046Z,97446.91
2023-04-15T00:40:48.107Z,97444.41
2023-04-15T00:43:17.590Z,97446.50
2023-04-15T00:45:44.584Z,97448.66
2023-04-15T00:48:12.134Z,97444.31
2023-04-15T00:50:39.216Z,97451.25
2023-04-15T00:53:06.112Z,97442.91
2023-04-15T00:55:32.930Z,97444.75
2023-04-15T00:57:59.847Z,97442.69
2023-04-15T01:00:27.007Z,97447.00
2023-04-15T01:02:53.871Z,97444.47
2023-04-15T01:05:20.722Z,97451.50
2023-04-15T01:07:48.758Z,97443.00
2023-04-15T01:10:15.719Z,97440.56
2023-04-15T01:12:43.253Z,97437.59
2023-04-15T01:15:11.076Z,97436.09
2023-04-15T01:17:38.588Z,97435.94
2023-04-15T01:20:10.141Z,97435.31
2023-04-15T01:22:38.343Z,97428.88
2023-04-15T01:25:13.114Z,97419.59
2023-04-15T01:27:42.290Z,97423.66
2023-04-15T01:30:10.539Z,97428.91
2023-04-15T01:32:37.812Z,97420.75
2023-04-15T01:35:24.008Z,97425.09
2023-04-15T01:37:51.627Z,97422.50
2023-04-15T01:40:18.464Z,97430.47
2023-04-15T01:42:46.670Z,97423.50
2023-04-15T01:45:17.455Z,97424.72
2023-04-15T01:47:45.650Z,97425.88
2023-04-15T01:50:13.988Z,97418.53
2023-04-15T01:52:42.381Z,97429.38
2023-04-15T01:55:14.064Z,97426.34
2023-04-15T01:57:42.364Z,97423.34
2023-04-15T02:00:11.590Z,97421.50
2023-04-15T02:02:43.636Z,97418.50
2023-04-15T02:05:11.742Z,97424.72
2023-04-15T02:07:39.620Z,97423.47
2023-04-15T02:10:07.882Z,97424.34
2023-04-15T02:12:36.822Z,97430.53
2023-04-15T02:15:05.692Z,97431.13
2023-04-15T02:17:37.635Z,97425.16
2023-04-15T02:20:06.323Z,97417.22
2023-04-15T02:22:34.846Z,97418.09
2023-04-15T02:25:02.855Z,97427.56
2023-04-15T02:27:33.196Z,97430.38
2023-04-15T02:30:01.212Z,97430.13
2023-04-15T02:32:29.399Z,97434.78
2023-04-15T02:35:02.012Z,97437.16
2023-04-15T02:37:31.743Z,97430.31
2023-04-15T02:40:00.944Z,97439.69
2023-04-15T02:42:30.336Z,97433.91
2023-04-15T02:45:01.704Z,97435.47
2023-04-15T02:47:34.863Z,97421.59
2023-04-15T02:50:08.138Z,97430.97
2023-04-15T02:52:36.237Z,97432.09
2023-04-15T02:55:05.199Z,97437.75
2023-04-15T02:57:33.357Z,97442.81
2023-04-15T03:00:09.507Z,97437.66
2023-04-15T03:02:40.265Z,97446.47
2023-04-15T03:05:12.674Z,97442.31
2023-04-15T03:07:43.031Z,97441.59
2023-04-15T03:10:12.096Z,97442.50
2023-04-15T03:12:40.904Z,97439.09
2023-04-15T03:15:11.800Z,97440.66
2023-04-15T03:17:44.622Z,97441.38
2023-04-15T03:20:12.841Z,97437.09
2023-04-15T03:22:40.854Z,97441.19
2023-04-15T03:25:09.783Z,97439.19
2023-04-15T03:27:38.765Z,97442.47
2023-04-15T03:30:07.890Z,97438.13
2023-04-15T03:32:38.889Z,97439.19
2023-04-15T03:35:08.552Z,97438.38
2023-04-15T03:37:36.778Z,97437.69
2023-04-15T03:40:05.583Z,97446.63
2023-04-15T03:42:33.541Z,97444.16
2023-04-15T03:45:01.598Z,97440.97
2023-04-15T03:47:29.861Z,97440.94
2023-04-15T03:49:57.801Z,97442.53
2023-04-15T03:52:26.057Z,97438.75
2023-04-15T03:54:54.046Z,97442.03
2023-04-15T03:57:21.950Z,97445.97
2023-04-15T03:59:49.876Z,97442.31
2023-04-15T04:02:17.994Z,97447.47
2023-04-15T04:04:46.386Z,97444.75
2023-04-15T04:07:18.243Z,97448.22
2023-04-15T04:09:47.397Z,97447.28
2023-04-15T04:12:15.653Z,97448.47
2023-04-15T04:14:43.763Z,97449.34
2023-04-15T04:17:11.788Z,97446.13
2023-04-15T04:19:39.918Z,97446.13
2023-04-15T04:22:07.874Z,97447.88
2023-04-15T04:24:35.950Z,97448.84
2023-04-15T04:27:03.952Z,97445.44
2023-04-15T04:29:31.954Z,97453.06
2023-04-15T04:31:59.923Z,97456.31
2023-04-15T04:34:27.979Z,97451.22
2023-04-15T04:36:56.004Z,97458.13
2023-04-15T04:39:23.990Z,97461.16
2023-04-15T04:41:54.588Z,97456.88
2023-04-15T04:44:22.526Z,97461.31
2023-04-15T04:46:50.617Z,97457.47
2023-04-15T04:49:18.577Z,97460.16
2023-04-15T04:51:48.468Z,97466.25
2023-04-15T04:54:16.957Z,97461.72
2023-04-15T04:56:44.941Z,97462.47
2023-04-15T04:59:13.098Z,97465.09
2023-04-15T05:01:41.197Z,97458.84
2023-04-15T05:04:09.461Z,97454.69
2023-04-15T05:06:37.655Z,97462.34
2023-04-15T05:09:05.932Z,97457.50
2023-04-15T05:11:33.942Z,97448.31
2023-04-15T05:14:02.430Z,97458.69
2023-04-15T05:16:30.459Z,97465.59
2023-04-15T05:18:58.477Z,97462.56
2023-04-15T05:21:27.693Z,97463.09
2023-04-15T05:23:55.994Z,97467.25
2023-04-15T05:26:26.493Z,97471.09
2023-04-15T05:28:55.048Z,97476.00
2023-04-15T05:31:23.019Z,97488.16
2023-04-15T05:33:51.348Z,97487.09
2023-04-15T05:36:19.324Z,97489.88
2023-04-15T05:38:47.404Z,97497.19
2023-04-15T05:41:17.775Z,97493.38
2023-04-15T05:43:47.748Z,97496.41
2023-04-15T05:46:16.499Z,97495.28
2023-04-15T05:48:44.499Z,97496.91
2023-04-15T05:51:12.591Z,97500.75
2023-04-15T05:53:41.669Z,97492.81
2023-04-15T05:56:09.758Z,97489.59
2023-04-15T05:58:38.336Z,97498.63
2023-04-15T06:01:06.458Z,97494.38
2023-04-15T06:03:34.537Z,97496.81
2023-04-15T06:06:02.620Z,97488.22
2023-04-15T06:08:30.769Z,97486.94
2023-04-15T06:10:59.113Z,97489.75
2023-04-15T06:13:27.137Z,97489.09
2023-04-15T06:15:55.395Z,97480.69
2023-04-15T06:18:23.382Z,97486.78
2023-04-15T06:20:51.652Z,97491.81
2023-04-15T06:23:19.552Z,97500.16
2023-04-15T06:25:47.460Z,97500.03
2023-04-15T06:28:15.608Z,97485.84
2023-04-15T06:30:43.569Z,97493.06
2023-04-15T06:33:11.613Z,97493.03
2023-04-15T06:35:40.092Z,97488.56
2023-04-15T06:38:08.069Z,97479.88
2023-04-15T06:40:36.047Z,97483.94
2023-04-15T06:43:04.919Z,97479.03
2023-04-15T06:45:33.160Z,97475.13
2023-04-15T06:48:01.271Z,97464.03
2023-04-15T06:50:29.219Z,97470.78
2023-04-15T06:52:57.378Z,97455.94
2023-04-15T06:55:25.295Z,97465.56
2023-04-15T06:57:53.251Z,97465.59
2023-04-15T07:00:21.401Z,97466.47
2023-04-15T07:02:49.443Z,97463.09
2023-04-15T07:05:18.102Z,97458.16
2023-04-15T07:07:46.117Z,97448.22
2023-04-15T07:10:15.889Z,97455.31
2023-04-15T07:12:43.937Z,97452.44
2023-04-15T07:15:12.315Z,97469.34
2023-04-15T07:17:43.140Z,97468.91
2023-04-15T07:20:11.679Z,97466.84
2023-04-15T07:22:40.167Z,97473.25
2023-04-15T07:25:08.951Z,97459.69
2023-04-15T07:27:36.884Z,97461.53
2023-04-15T07:30:05.539Z,97471.16
2023-04-15T07:32:33.598Z,97470.41
2023-04-15T07:35:02.197Z,97472.09
2023-04-15T07:37:30.235Z,97473.13
2023-04-15T07:39:58.272Z,97464.41
2023-04-15T07:42:26.368Z,97468.53
2023-04-15T07:44:54.441Z,97472.50
2023-04-15T07:47:22.501Z,97478.34
2023-04-15T07:49:51.523Z,97475.53
2023-04-15T07:52:19.557Z,97464.97
2023-04-15T07:54:47.587Z,97464.19
2023-04-15T07:57:16.910Z,97465.09
2023-04-15T07:59:44.994Z,97467.84
2023-04-15T08:02:13.092Z,97458.97
2023-04-15T08:04:41.299Z,97453.63
2023-04-15T08:07:09.325Z,97459.91
2023-04-15T08:09:37.496Z,97451.63
2023-04-15T08:12:05.709Z,97459.50
2023-04-15T08:14:33.736Z,97458.34
2023-04-15T08:17:01.725Z,97452.94
2023-04-15T08:19:30.299Z,97464.94
2023-04-15T08:21:59.121Z,97465.91
2023-04-15T08:24:27.294Z,97457.56
2023-04-15T08:26:55.328Z,97467.63
2023-04-15T08:29:23.730Z,97464.44
2023-04-15T08:31:51.910Z,97469.69
2023-04-15T08:34:19.966Z,97472.94
2023-04-15T08:36:48.011Z,97474.50
2023-04-15T08:39:15.992Z,97482.47
2023-04-15T08:41:52.213Z,97462.66
2023-04-15T08:44:21.976Z,97475.06
2023-04-15T08:46:51.682Z,97464.78
2023-04-15T08:49:22.494Z,97468.06
2023-04-15T08:51:50.430Z,97474.28
2023-04-15T08:54:18.999Z,97469.47
2023-04-15T08:56:47.717Z,97472.41
2023-04-15T08:59:16.628Z,97479.00
2023-04-15T09:01:45.377Z,97492.19
2023-04-15T09:04:14.417Z,97492.16
2023-04-15T09:06:42.472Z,97492.63
2023-04-15T09:09:10.554Z,97495.56
2023-04-15T09:11:38.675Z,97491.59
2023-04-15T09:14:06.856Z,97495.94
2023-04-15T09:17:01.332Z,97499.19
2023-04-15T09:19:30.388Z,97508.41
2023-04-15T09:21:59.619Z,97508.19
2023-04-15T09:24:37.594Z,97511.66
2023-04-15T09:27:06.114Z,97514.13
2023-04-15T09:29:34.441Z,97517.19
2023-04-15T09:32:15.952Z,97510.75
2023-04-15T09:34:44.506Z,97514.66
2023-04-15T09:37:24.605Z,97510.69
2023-04-15T09:39:59.434Z,97513.53
2023-04-15T09:42:28.235Z,97511.69
2023-04-15T09:44:56.607Z,97514.66
2023-04-15T09:47:32.165Z,97515.69
2023-04-15T09:50:01.298Z,97521.25
2023-04-15T09:52:30.418Z,97523.13
2023-04-15T09:54:59.816Z,97526.72
2023-04-15T09:57:38.729Z,97525.31
2023-04-15T10:00:08.978Z,97528.78
2023-04-15T10:02:39.953Z,97524.91
2023-04-15T10:05:11.967Z,97529.38
2023-04-15T10:07:41.248Z,97530.66
2023-04-15T10:10:10.815Z,97531.19
2023-04-15T10:12:41.566Z,97529.75
2023-04-15T10:15:16.912Z,97543.25
2023-04-15T10:17:45.709Z,97546.38
2023-04-15T10:20:15.028Z,97534.19
2023-04-15T10:22:45.440Z,97536.47
2023-04-15T10:25:15.746Z,97533.41
2023-04-15T10:27:43.780Z,97533.31
2023-04-15T10:30:12.540Z,97526.44
2023-04-15T10:32:41.473Z,97540.09
2023-04-15T10:35:09.975Z,97543.75
2023-04-15T10:37:39.268Z,97540.22
2023-04-15T10:40:32.676Z,97550.38
2023-04-15T10:43:02.538Z,97547.13
2023-04-15T10:45:36.787Z,97552.53
2023-04-15T10:48:08.205Z,97555.81
2023-04-15T10:50:37.679Z,97558.44
2023-04-15T10:53:06.020Z,97552.66
2023-04-15T10:55:34.663Z,97565.84
2023-04-15T10:58:03.030Z,97573.03
2023-04-15T11:00:32.893Z,97575.03
2023-04-15T11:03:07.801Z,97579.47
2023-04-15T11:05:42.106Z,97579.06
2023-04-15T11:08:11.176Z,97586.41
2023-04-15T11:10:39.055Z,97593.72
2023-04-15T11:13:09.930Z,97591.31
2023-04-15T11:15:47.858Z,97604.63
2023-04-15T11:18:28.101Z,97604.91
2023-04-15T11:20:59.235Z,97615.44
2023-04-15T11:23:28.761Z,97613.78
2023-04-15T11:25:58.079Z,97622.22
2023-04-15T11:28:31.178Z,97631.13
2023-04-15T11:31:06.307Z,97634.66
2023-04-15T11:33:34.497Z,97636.41
2023-04-15T11:36:04.218Z,97636.56
2023-04-15T11:38:34.014Z,97631.94
2023-04-15T11:41:02.046Z,97634.72
2023-04-15T11:43:32.354Z,97636.53
2023-04-15T11:46:02.128Z,97630.66
2023-04-15T11:48:36.128Z,97628.28
2023-04-15T11:51:06.486Z,97628.06
2023-04-15T11:53:39.516Z,97632.72
2023-04-15T11:56:07.029Z,97626.06
2023-04-15T11:58:37.578Z,97624.34
2023-04-15T12:01:05.323Z,97640.81
2023-04-15T12:03:43.452Z,97642.56
2023-04-15T12:06:21.690Z,97652.72
2023-04-15T12:08:51.169Z,97666.00
2023-04-15T12:11:17.947Z,97662.81
2023-04-15T12:13:49.258Z,97662.41
2023-04-15T12:16:19.945Z,97668.66
2023-04-15T12:18:48.225Z,97669.03
2023-04-15T12:21:15.357Z,97672.13
2023-04-15T12:23:53.625Z,97672.28
2023-04-15T12:26:51.201Z,97671.97
2023-04-15T12:29:18.339Z,97681.38
2023-04-15T12:31:52.152Z,97677.94
2023-04-15T12:34:30.924Z,97685.47
2023-04-15T12:36:59.350Z,97689.94
2023-04-15T12:39:30.484Z,97694.59
2023-04-15T12:41:59.380Z,97699.16
2023-04-15T12:44:26.166Z,97702.59
2023-04-15T12:46:53.543Z,97706.84
2023-04-15T12:49:24.380Z,97713.41
2023-04-15T12:51:53.179Z,97706.97
2023-04-15T12:54:20.434Z,97709.19
2023-04-15T12:56:48.375Z,97722.63
2023-04-15T12:59:16.513Z,97729.66
2023-04-15T13:01:43.570Z,97736.03
2023-04-15T13:04:10.612Z,97740.75
2023-04-15T13:06:38.413Z,97751.47
2023-04-15T13:09:06.123Z,97752.44
2023-04-15T13:11:33.939Z,97756.34
2023-04-15T13:14:01.950Z,97764.06
2023-04-15T13:16:29.447Z,97760.00
2023-04-15T13:18:56.297Z,97770.84
2023-04-15T13:21:23.054Z,97768.50
2023-04-15T13:23:52.592Z,97766.53
2023-04-15T13:26:19.531Z,97775.72
2023-04-15T13:28:46.625Z,97774.88
2023-04-15T13:31:13.617Z,97771.56
2023-04-15T13:33:40.478Z,97776.09
2023-04-15T13:36:08.279Z,97782.00
2023-04-15T13:38:35.160Z,97786.88
2023-04-15T13:41:01.947Z,97788.84
2023-04-15T13:43:28.802Z,97803.78
2023-04-15T13:45:55.675Z,97802.47
2023-04-15T13:48:22.360Z,97812.47
2023-04-15T13:50:49.019Z,97813.97
2023-04-15T13:53:15.843Z,97804.16
2023-04-15T13:55:43.020Z,97815.72
2023-04-15T13:58:10.260Z,97820.84
2023-04-15T14:00:37.240Z,97817.63
2023-04-15T14:03:04.537Z,97824.28
2023-04-15T14:05:32.477Z,97834.72
2023-04-15T14:08:00.066Z,97841.53
2023-04-15T14:10:26.774Z,97834.38
2023-04-15T14:12:53.518Z,97831.22
2023-04-15T14:15:21.041Z,97848.88
2023-04-15T14:17:47.763Z,97849.59
2023-04-15T14:20:16.827Z,97857.16
2023-04-15T14:22:43.989Z,97848.09
2023-04-15T14:25:15.129Z,97857.94
2023-04-15T14:27:46.907Z,97863.88
2023-04-15T14:30:13.704Z,97857.63
2023-04-15T14:32:40.741Z,97871.84
2023-04-15T14:35:08.861Z,97881.19
2023-04-15T14:37:35.999Z,97878.41
2023-04-15T14:40:02.957Z,97876.69
2023-04-15T14:42:29.716Z,97892.03
2023-04-15T14:44:56.415Z,97890.03
2023-04-15T14:47:23.413Z,97893.44
2023-04-15T14:49:50.739Z,97897.72
2023-04-15T14:52:17.467Z,97892.53
2023-04-15T14:54:44.167Z,97896.72
2023-04-15T14:57:11.103Z,97897.31
2023-04-15T14:59:37.844Z,97895.75
2023-04-15T15:02:04.723Z,97896.19
2023-04-15T15:04:33.456Z,97904.34
2023-04-15T15:07:00.276Z,97919.81
2023-04-15T15:09:27.458Z,97921.94
2023-04-15T15:11:54.156Z,97921.59
2023-04-15T15:16:47.819Z,97921.19
2023-04-15T15:19:14.558Z,97918.81
2023-04-15T15:21:41.228Z,97926.66
2023-04-15T15:24:07.930Z,97930.09
2023-04-15T15:26:34.791Z,97927.69
2023-04-15T15:29:02.173Z,97934.47
2023-04-15T15:31:28.976Z,97933.56
2023-04-15T15:33:55.699Z,97938.31
2023-04-15T15:36:22.397Z,97938.06
2023-04-15T15:38:49.084Z,97939.84
2023-04-15T15:41:15.962Z,97942.22
2023-04-15T15:43:42.715Z,97948.00
2023-04-15T15:46:09.647Z,97949.19
2023-04-15T15:48:36.784Z,97955.13
2023-04-15T15:51:04.218Z,97950.91
2023-04-15T15:53:31.111Z,97971.78
2023-04-15T15:55:57.903Z,97975.16
2023-04-15T15:58:24.601Z,97978.88
2023-04-15T16:00:51.378Z,97984.13
2023-04-15T16:03:18.506Z,97989.50
2023-04-15T16:05:46.997Z,97992.34
2023-04-15T16:08:13.793Z,98001.41
2023-04-15T16:10:40.827Z,98004.94
2023-04-15T16:13:07.849Z,98005.31
2023-04-15T16:15:34.586Z,98012.78
2023-04-15T16:18:01.481Z,98017.66
2023-04-15T16:20:28.851Z,98017.34
2023-04-15T16:22:58.922Z,98027.25
2023-04-15T16:25:25.862Z,98033.81
2023-04-15T16:28:01.463Z,98026.34
2023-04-15T16:30:40.108Z,98038.91
2023-04-15T16:33:08.196Z,98037.91
2023-04-15T16:35:34.985Z,98045.28
2023-04-15T16:38:01.950Z,98051.19
2023-04-15T16:40:28.700Z,98058.06
2023-04-15T16:42:55.720Z,98050.72
2023-04-15T16:45:22.507Z,98068.00
2023-04-15T16:47:49.190Z,98077.50
2023-04-15T16:50:16.083Z,98082.06
2023-04-15T16:52:42.963Z,98084.75
2023-04-15T16:55:09.670Z,98099.19
2023-04-15T16:58:00.766Z,98093.47
2023-04-15T17:00:23.074Z,98107.47
2023-04-15T17:02:49.991Z,98105.72
2023-04-15T17:05:16.943Z,98110.03
2023-04-15T17:07:43.646Z,98112.19
2023-04-15T17:10:10.592Z,98119.03
2023-04-15T17:12:37.409Z,98123.09
2023-04-15T17:15:04.450Z,98131.22
2023-04-15T17:17:31.488Z,98127.72
2023-04-15T17:19:58.218Z,98126.75
2023-04-15T17:22:25.250Z,98137.63
2023-04-15T17:24:52.063Z,98138.88
2023-04-15T17:27:21.192Z,98142.88
2023-04-15T17:29:48.044Z,98146.81
2023-04-15T17:32:35.129Z,98160.03
2023-04-15T17:35:23.406Z,98161.84
2023-04-15T17:38:10.281Z,98176.94
2023-04-15T17:40:56.910Z,98175.09
2023-04-15T17:43:43.591Z,98179.66
2023-04-15T17:46:30.766Z,98188.16
2023-04-15T17:49:17.448Z,98197.94
2023-04-15T17:52:04.582Z,98192.66
2023-04-15T17:54:51.229Z,98197.84
2023-04-15T17:57:37.913Z,98199.00
2023-04-15T18:00:24.728Z,98203.31
2023-04-15T18:03:11.535Z,98210.09
2023-04-15T18:05:58.366Z,98217.09
2023-04-15T18:08:45.077Z,98220.47
2023-04-15T18:11:33.232Z,98222.78
2023-04-15T18:14:32.993Z,98229.38
2023-04-15T18:17:20.816Z,98231.94
2023-04-15T18:20:07.868Z,98256.63
2023-04-15T18:22:34.711Z,98250.50
2023-04-15T18:25:04.192Z,98257.69
2023-04-15T18:27:35.455Z,98258.09
2023-04-15T18:30:02.197Z,98258.75
2023-04-15T18:32:31.918Z,98263.13
2023-04-15T18:34:58.768Z,98264.81
2023-04-15T18:37:26.924Z,98277.25
2023-04-15T18:39:54.160Z,98280.97
2023-04-15T18:42:21.619Z,98281.78
2023-04-15T18:44:48.974Z,98288.91
2023-04-15T18:47:16.152Z,98290.75
2023-04-15T18:49:42.878Z,98293.59
2023-04-15T18:52:10.264Z,98304.41
2023-04-15T18:54:37.777Z,98307.69
2023-04-15T18:57:04.629Z,98312.00
2023-04-15T18:59:31.627Z,98316.56
2023-04-15T19:02:00.025Z,98326.50
2023-04-15T19:04:29.234Z,98331.84
2023-04-15T19:06:56.387Z,98332.63
2023-04-15T19:09:23.119Z,98335.81
2023-04-15T19:11:49.819Z,98342.94
2023-04-15T19:14:17.744Z,98346.66
2023-04-15T19:16:44.550Z,98344.03
2023-04-15T19:19:14.399Z,98357.47
2023-04-15T19:21:41.547Z,98355.47
2023-04-15T19:24:08.273Z,98358.47
2023-04-15T19:26:36.667Z,98359.75
2023-04-15T19:29:03.745Z,98371.75
2023-04-15T19:31:30.783Z,98374.72
2023-04-15T19:33:57.467Z,98377.84
2023-04-15T19:36:24.205Z,98378.84
2023-04-15T19:38:51.034Z,98379.13
2023-04-15T19:41:17.740Z,98382.66
2023-04-15T19:43:44.400Z,98378.53
2023-04-15T19:46:13.201Z,98395.88
2023-04-15T19:48:40.128Z,98388.81
2023-04-15T19:51:06.921Z,98389.56
2023-04-15T19:53:33.644Z,98400.50
2023-04-15T19:56:00.341Z,98399.69
2023-04-15T19:58:27.081Z,98396.97
2023-04-15T20:00:53.992Z,98411.06
2023-04-15T20:03:20.938Z,98400.16
2023-04-15T20:05:47.831Z,98412.00
2023-04-15T20:08:14.689Z,98411.22
2023-04-15T20:10:41.604Z,98405.94
2023-04-15T20:13:08.485Z,98403.69
2023-04-15T20:15:35.464Z,98412.38
2023-04-15T20:18:02.373Z,98420.34
2023-04-15T20:20:29.317Z,98423.22
2023-04-15T20:22:56.197Z,98417.00
2023-04-15T20:25:23.008Z,98426.88
2023-04-15T20:27:49.790Z,98425.19
2023-04-15T20:30:16.484Z,98427.91
2023-04-15T20:32:43.315Z,98430.63
2023-04-15T20:35:10.115Z,98425.94
2023-04-15T20:37:37.628Z,98432.50
2023-04-15T20:40:04.675Z,98433.41
2023-04-15T20:42:34.523Z,98426.72
2023-04-15T20:45:02.148Z,98435.09
2023-04-15T20:47:29.465Z,98430.03
2023-04-15T20:49:56.276Z,98435.94
2023-04-15T20:52:23.027Z,98444.31
2023-04-15T20:54:50.389Z,98435.19
2023-04-15T20:57:17.427Z,98433.94
2023-04-15T20:59:44.142Z,98436.94
2023-04-15T21:02:11.086Z,98443.91
2023-04-15T21:04:40.762Z,98443.41
2023-04-15T21:07:07.468Z,98455.56
2023-04-15T21:09:34.217Z,98441.81
2023-04-15T21:12:02.142Z,98445.47
2023-04-15T21:14:29.588Z,98451.28
2023-04-15T21:16:58.201Z,98457.56
2023-04-15T21:19:25.049Z,98464.16
2023-04-15T21:21:52.274Z,98460.22
2023-04-15T21:24:18.964Z,98470.97
2023-04-15T21:26:45.876Z,98472.38
2023-04-15T21:29:12.815Z,98473.44
2023-04-15T21:31:40.185Z,98472.28
2023-04-15T21:34:07.054Z,98477.13
2023-04-15T21:36:34.230Z,98479.72
2023-04-15T21:39:01.084Z,98476.13
2023-04-15T21:41:28.021Z,98475.91
2023-04-15T21:43:54.806Z,98479.59
2023-04-15T21:46:25.344Z,98482.97
2023-04-15T21:48:53.366Z,98487.19
2023-04-15T21:51:20.351Z,98490.94
2023-04-15T21:53:47.166Z,98495.31
2023-04-15T21:56:14.074Z,98498.84
2023-04-15T21:58:40.820Z,98500.22
2023-04-15T22:01:07.563Z,98506.47
2023-04-15T22:03:35.242Z,98510.06
2023-04-15T22:06:05.248Z,98510.16
2023-04-15T22:08:41.274Z,98512.06
2023-04-15T22:11:23.058Z,98506.59
2023-04-15T22:13:49.865Z,98511.94
2023-04-15T22:16:16.561Z,98514.91
2023-04-15T22:18:43.376Z,98517.38
2023-04-15T22:21:10.163Z,98522.97
2023-04-15T22:23:36.902Z,98520.00
2023-04-15T22:26:04.836Z,98520.59
2023-04-15T22:28:31.579Z,98514.34
2023-04-15T22:30:58.968Z,98526.53
2023-04-15T22:33:25.781Z,98523.75
2023-04-15T22:35:52.456Z,98530.75
2023-04-15T22:38:19.152Z,98528.88
2023-04-15T22:40:46.433Z,98533.28
2023-04-15T22:43:13.165Z,98531.75
2023-04-15T22:45:40.388Z,98534.38
2023-04-15T22:48:07.092Z,98540.78
2023-04-15T22:50:37.094Z,98541.56
2023-04-15T22:53:03.871Z,98547.88
2023-04-15T22:55:30.873Z,98545.69
2023-04-15T22:57:57.636Z,98551.44
2023-04-15T23:00:24.384Z,98551.13
2023-04-15T23:02:51.173Z,98554.09
2023-04-15T23:05:18.132Z,98555.22
2023-04-15T23:07:44.820Z,98559.69
2023-04-15T23:10:11.594Z,98554.97
2023-04-15T23:12:38.351Z,98554.44
2023-04-15T23:15:05.487Z,98556.81
2023-04-15T23:17:32.309Z,98558.19
2023-04-15T23:19:59.072Z,98562.72
2023-04-15T23:22:25.882Z,98558.03
2023-04-15T23:24:52.555Z,98557.13
2023-04-15T23:27:19.245Z,98562.41
2023-04-15T23:29:46.070Z,98559.69
2023-04-15T23:32:12.772Z,98563.81
2023-04-15T23:34:39.466Z,98564.56
2023-04-15T23:37:06.269Z,98563.59
2023-04-15T23:39:33.144Z,98576.78
2023-04-15T23:41:59.963Z,98571.41
2023-04-15T23:44:27.021Z,98567.91
2023-04-15T23:46:53.718Z,98562.50
2023-04-15T23:49:20.720Z,98568.50
2023-04-15T23:51:47.478Z,98564.91
2023-04-15T23:54:14.766Z,98574.56
2023-04-15T23:56:41.457Z,98566.72
2023-04-15T23:59:08.551Z,98568.59
